Time;durP1;ratioP1;P1;durP2;ratioP2;P2;SDS_P1;SDS_P2;PMS_P1;PMS_P2;Temp;Humidity;BMP_temperature;BMP_pressure;BME280_temperature;BME280_humidity;BME280_pressure;Samples;Min_cycle;Max_cycle;Signal;HPM_P1;HPM_P2
2023/09/16 00:00:41;;;;;;;2.10;1.90;;;22.70;66.20;;;;;;5074274;28;20675;-53
2023/09/16 00:03:28;;;;;;;2.30;2.00;;;22.70;66.20;;;;;;5072774;28;20967;-53
2023/09/16 00:06:15;;;;;;;3.10;2.70;;;22.70;66.30;;;;;;5064451;28;20461;-52
2023/09/16 00:09:02;;;;;;;2.40;2.10;;;22.60;66.00;;;;;;5073373;28;20567;-53
2023/09/16 00:11:50;;;;;;;1.73;1.57;;;22.70;66.30;;;;;;5072313;28;20464;-53
2023/09/16 00:14:38;;;;;;;2.60;2.30;;;22.60;66.10;;;;;;5070082;28;20449;-53
2023/09/16 00:17:25;;;;;;;3.07;2.57;;;22.70;66.30;;;;;;5068867;28;20824;-53
2023/09/16 00:20:15;;;;;;;2.37;1.93;;;22.60;66.00;;;;;;5067967;28;20840;-53
2023/09/16 00:23:04;;;;;;;2.50;1.87;;;22.70;66.30;;;;;;5070330;28;20464;-52
2023/09/16 00:25:52;;;;;;;1.77;1.63;;;22.60;66.10;;;;;;5072679;28;20534;-53
2023/09/16 00:28:40;;;;;;;2.00;1.73;;;22.60;66.20;;;;;;5078177;28;20452;-53
2023/09/16 00:31:28;;;;;;;2.77;1.93;;;22.60;66.30;;;;;;5067794;28;20458;-50
2023/09/16 00:34:15;;;;;;;2.33;1.93;;;22.60;66.30;;;;;;5068482;28;20477;-53
2023/09/16 00:37:03;;;;;;;2.30;2.10;;;22.60;66.20;;;;;;5082009;28;20466;-54
2023/09/16 00:39:49;;;;;;;1.97;1.77;;;22.60;66.30;;;;;;5062333;28;20432;-53
2023/09/16 00:42:37;;;;;;;4.60;1.90;;;22.60;66.30;;;;;;5078059;28;20846;-53
2023/09/16 00:45:26;;;;;;;3.10;2.50;;;22.60;66.30;;;;;;5071794;28;20444;-51
2023/09/16 00:48:14;;;;;;;1.90;1.60;;;22.60;66.20;;;;;;5077065;28;20449;-52
2023/09/16 00:51:01;;;;;;;2.33;1.83;;;22.60;66.30;;;;;;5074322;28;20467;-54
2023/09/16 00:53:49;;;;;;;2.13;1.93;;;22.60;66.30;;;;;;5072492;28;20800;-51
2023/09/16 00:56:36;;;;;;;2.00;1.80;;;22.60;66.30;;;;;;5075428;28;20480;-54
2023/09/16 00:59:23;;;;;;;2.33;1.90;;;22.60;66.30;;;;;;5073795;28;21038;-53
2023/09/16 01:02:12;;;;;;;2.13;1.93;;;22.50;66.20;;;;;;5075407;28;20530;-53
2023/09/16 01:04:59;;;;;;;2.10;1.90;;;22.60;66.30;;;;;;5073709;28;20988;-53
2023/09/16 01:07:46;;;;;;;2.33;1.90;;;22.60;66.30;;;;;;5065432;28;20596;-52
2023/09/16 01:10:33;;;;;;;2.10;1.90;;;22.60;66.30;;;;;;5076271;28;20496;-54
2023/09/16 01:13:20;;;;;;;2.10;1.90;;;22.50;66.10;;;;;;5080002;28;20453;-53
2023/09/16 01:16:18;;;;;;;2.63;2.43;;;22.60;66.30;;;;;;5081705;28;20468;-52
2023/09/16 01:19:17;;;;;;;1.87;1.57;;;22.50;66.10;;;;;;5071711;28;20592;-53
2023/09/16 01:22:04;;;;;;;1.70;1.60;;;22.50;66.20;;;;;;5077179;28;20465;-54
2023/09/16 01:24:52;;;;;;;2.23;2.03;;;22.50;66.20;;;;;;5073374;28;20436;-52
2023/09/16 01:27:41;;;;;;;5.20;2.13;;;22.50;66.10;;;;;;5075418;28;20654;-53
2023/09/16 01:30:30;;;;;;;2.30;2.10;;;22.50;66.10;;;;;;5075698;28;20459;-53
2023/09/16 01:33:22;;;;;;;2.30;2.10;;;22.50;66.10;;;;;;5075030;28;20858;-53
2023/09/16 01:36:14;;;;;;;2.33;2.13;;;22.50;66.30;;;;;;5071554;28;20825;-53
2023/09/16 01:39:03;;;;;;;2.90;2.03;;;22.50;66.10;;;;;;5073867;28;20498;-52
2023/09/16 01:41:52;;;;;;;2.20;2.00;;;22.50;66.10;;;;;;5075849;28;21012;-53
2023/09/16 01:44:40;;;;;;;2.17;1.80;;;22.50;66.00;;;;;;5073763;28;20460;-52
2023/09/16 01:47:27;;;;;;;2.10;1.70;;;22.50;66.10;;;;;;5077552;28;20465;-53
2023/09/16 01:50:13;;;;;;;1.63;1.53;;;22.50;66.00;;;;;;5073765;28;20464;-53
2023/09/16 01:53:01;;;;;;;2.20;1.90;;;22.50;66.00;;;;;;5070034;28;20550;-51
2023/09/16 01:55:48;;;;;;;2.03;1.83;;;22.50;66.20;;;;;;5073635;28;20448;-55
2023/09/16 01:58:34;;;;;;;1.73;1.40;;;22.50;66.00;;;;;;5088857;28;20541;-53
2023/09/16 02:01:22;;;;;;;2.00;1.80;;;22.50;66.20;;;;;;5074280;28;20515;-52
2023/09/16 02:04:09;;;;;;;2.70;1.97;;;22.50;66.10;;;;;;5078884;28;20459;-53
2023/09/16 02:06:56;;;;;;;2.27;2.07;;;22.50;66.10;;;;;;5076026;28;20562;-51
2023/09/16 02:09:43;;;;;;;3.50;1.93;;;22.50;66.20;;;;;;5079438;28;20433;-53
2023/09/16 02:12:31;;;;;;;2.40;2.20;;;22.50;66.10;;;;;;5073286;28;20477;-53
2023/09/16 02:15:18;;;;;;;1.73;1.60;;;22.50;66.00;;;;;;5071042;28;21077;-53
2023/09/16 02:18:06;;;;;;;2.23;2.00;;;22.50;66.20;;;;;;5073578;28;20532;-53
2023/09/16 02:20:53;;;;;;;1.80;1.70;;;22.40;65.90;;;;;;5076582;28;20533;-53
2023/09/16 02:23:40;;;;;;;2.97;2.10;;;22.40;65.90;;;;;;5074276;28;20574;-53
2023/09/16 02:26:27;;;;;;;2.30;2.10;;;22.40;66.00;;;;;;5069379;28;20460;-53
2023/09/16 02:29:13;;;;;;;2.23;1.90;;;22.40;66.00;;;;;;5075281;28;20441;-53
2023/09/16 02:32:00;;;;;;;2.07;1.83;;;22.50;66.10;;;;;;5065756;28;20484;-54
2023/09/16 02:34:48;;;;;;;2.10;1.77;;;22.50;66.20;;;;;;5066016;28;20467;-53
2023/09/16 02:37:35;;;;;;;1.93;1.77;;;22.40;66.10;;;;;;5071186;28;20596;-52
2023/09/16 02:40:22;;;;;;;2.03;1.83;;;22.40;66.10;;;;;;5072291;28;20433;-52
2023/09/16 02:43:09;;;;;;;2.17;1.77;;;22.40;66.00;;;;;;5076653;28;20481;-52
2023/09/16 02:45:56;;;;;;;2.43;1.60;;;22.40;66.20;;;;;;5071675;28;20836;-52
2023/09/16 02:48:44;;;;;;;2.63;2.23;;;22.40;66.20;;;;;;5072793;28;20436;-53
2023/09/16 02:51:33;;;;;;;2.30;2.10;;;22.40;66.20;;;;;;5083273;28;20868;-53
2023/09/16 02:54:20;;;;;;;2.13;1.57;;;22.40;66.10;;;;;;5068858;28;20449;-53
2023/09/16 02:57:08;;;;;;;2.10;1.90;;;22.40;66.20;;;;;;5068361;28;20474;-52
2023/09/16 02:59:55;;;;;;;1.70;1.60;;;22.40;66.20;;;;;;5067300;28;20453;-54
2023/09/16 03:02:42;;;;;;;2.43;2.17;;;22.40;66.10;;;;;;5075241;28;20463;-51
2023/09/16 03:05:30;;;;;;;2.40;1.77;;;22.40;66.10;;;;;;5075107;28;20818;-53
2023/09/16 03:08:19;;;;;;;2.07;1.73;;;22.40;66.20;;;;;;5070639;28;20468;-54
2023/09/16 03:11:07;;;;;;;2.23;1.93;;;22.40;66.20;;;;;;5070290;28;20464;-53
2023/09/16 03:13:56;;;;;;;2.50;2.30;;;22.40;66.40;;;;;;5069014;28;20453;-53
2023/09/16 03:16:43;;;;;;;2.13;1.90;;;22.40;66.20;;;;;;5075566;28;20503;-53
2023/09/16 03:19:30;;;;;;;2.20;2.00;;;22.40;66.20;;;;;;5070305;28;20446;-52
2023/09/16 03:22:17;;;;;;;2.20;1.97;;;22.40;66.20;;;;;;5073871;28;20598;-52
2023/09/16 03:25:06;;;;;;;2.53;2.30;;;22.40;66.20;;;;;;5073726;28;20457;-52
2023/09/16 03:27:53;;;;;;;2.33;2.13;;;22.30;66.10;;;;;;5062924;28;20484;-52
2023/09/16 03:30:40;;;;;;;2.30;2.07;;;22.40;66.20;;;;;;5072719;28;20444;-53
2023/09/16 03:33:27;;;;;;;1.90;1.70;;;22.30;66.10;;;;;;5091836;28;20806;-52
2023/09/16 03:36:14;;;;;;;2.00;1.80;;;22.30;66.10;;;;;;5071047;28;20505;-52
2023/09/16 03:39:01;;;;;;;1.93;1.80;;;22.30;66.10;;;;;;5066268;28;20430;-52
2023/09/16 03:41:49;;;;;;;2.00;1.87;;;22.30;66.10;;;;;;5061319;28;20469;-53
2023/09/16 03:44:38;;;;;;;2.00;1.80;;;22.30;66.10;;;;;;5091638;28;20981;-54
2023/09/16 03:47:24;;;;;;;1.73;1.63;;;22.30;66.10;;;;;;5069995;28;20466;-52
2023/09/16 03:50:11;;;;;;;2.17;1.87;;;22.30;66.10;;;;;;5064092;28;20503;-53
2023/09/16 03:52:58;;;;;;;3.50;2.03;;;22.30;66.20;;;;;;5066014;28;20591;-52
2023/09/16 03:55:45;;;;;;;2.43;2.20;;;22.30;66.10;;;;;;5064969;28;20451;-52
2023/09/16 03:58:33;;;;;;;1.83;1.70;;;22.30;66.10;;;;;;5070468;28;20446;-53
2023/09/16 04:01:20;;;;;;;2.00;1.83;;;22.30;66.10;;;;;;5067873;28;20470;-53
2023/09/16 04:04:07;;;;;;;2.27;2.07;;;22.30;66.10;;;;;;5073894;28;20464;-53
2023/09/16 04:06:54;;;;;;;2.27;1.90;;;22.30;66.10;;;;;;5066648;28;20473;-54
2023/09/16 04:09:41;;;;;;;1.93;1.67;;;22.30;66.10;;;;;;5076614;28;20800;-52
2023/09/16 04:12:27;;;;;;;2.43;2.03;;;22.30;66.10;;;;;;5070597;28;20600;-53
2023/09/16 04:15:16;;;;;;;2.33;2.13;;;22.30;66.10;;;;;;5071130;28;21001;-53
2023/09/16 04:18:03;;;;;;;2.17;1.97;;;22.30;66.10;;;;;;5075853;28;20468;-52
2023/09/16 04:20:55;;;;;;;2.00;1.60;;;22.30;66.10;;;;;;5087678;28;20514;-53
2023/09/16 04:23:42;;;;;;;1.93;1.73;;;22.20;66.00;;;;;;5078108;28;20468;-53
2023/09/16 04:26:29;;;;;;;2.17;1.97;;;22.30;66.10;;;;;;5070218;28;20453;-52
2023/09/16 04:29:16;;;;;;;2.17;1.90;;;22.20;66.00;;;;;;5066559;28;20464;-53
2023/09/16 04:32:07;;;;;;;2.43;2.23;;;22.20;66.00;;;;;;5066574;28;20531;-53
2023/09/16 04:34:57;;;;;;;2.27;2.07;;;22.20;66.00;;;;;;5070921;28;20471;-51
2023/09/16 04:37:44;;;;;;;2.33;1.73;;;22.20;66.00;;;;;;5067361;28;21020;-53
2023/09/16 04:40:32;;;;;;;2.33;2.13;;;22.20;66.00;;;;;;5076906;28;20449;-53
2023/09/16 04:43:18;;;;;;;2.03;1.83;;;22.20;66.00;;;;;;5067011;28;21092;-53
2023/09/16 04:46:05;;;;;;;2.37;1.60;;;22.20;66.00;;;;;;5075597;28;20460;-53
2023/09/16 04:49:00;;;;;;;1.57;1.47;;;22.20;66.00;;;;;;5071770;28;20436;-53
2023/09/16 04:51:49;;;;;;;2.30;2.10;;;22.20;66.00;;;;;;5064538;28;20526;-53
2023/09/16 04:54:40;;;;;;;2.23;2.10;;;22.20;66.00;;;;;;5083925;28;20567;-52
2023/09/16 04:57:27;;;;;;;2.00;1.60;;;22.20;66.00;;;;;;5080939;28;20476;-53
2023/09/16 05:00:18;;;;;;;1.90;1.73;;;22.20;66.00;;;;;;5074422;28;20983;-53
2023/09/16 05:03:08;;;;;;;2.20;2.00;;;22.20;66.00;;;;;;5075533;28;20469;-53
2023/09/16 05:05:52;;;;;;;2.10;2.00;;;22.20;66.00;;;;;;5093351;22;20479;-51
2023/09/16 05:08:26;;;;;;;2.03;1.83;;;22.10;65.80;;;;;;5111892;22;20475;-50
2023/09/16 05:11:13;;;;;;;2.00;1.80;;;22.20;67.30;;;;;;5013933;28;20472;-51
2023/09/16 05:14:11;;;;;;;2.00;1.80;;;22.20;66.00;;;;;;4984099;28;20438;-51
2023/09/16 05:16:57;;;;;;;2.50;2.30;;;22.20;66.00;;;;;;4985032;28;20480;-49
2023/09/16 05:19:44;;;;;;;3.07;2.00;;;22.10;65.80;;;;;;4986428;28;20939;-49
2023/09/16 05:22:34;;;;;;;2.43;1.93;;;22.10;65.80;;;;;;4986173;28;20481;-50
2023/09/16 05:25:22;;;;;;;2.10;1.90;;;22.10;65.90;;;;;;4991392;28;20440;-48
2023/09/16 05:28:10;;;;;;;2.17;1.97;;;22.10;65.80;;;;;;5004015;28;20989;-49
2023/09/16 05:30:57;;;;;;;1.80;1.60;;;22.10;65.80;;;;;;4988413;28;20485;-48
2023/09/16 05:33:45;;;;;;;2.03;1.80;;;22.10;65.80;;;;;;4988574;28;20464;-50
2023/09/16 05:36:33;;;;;;;2.30;2.10;;;22.10;65.90;;;;;;4989106;28;20473;-49
2023/09/16 05:39:21;;;;;;;1.80;1.70;;;22.10;65.80;;;;;;4992161;28;20517;-49
2023/09/16 05:42:08;;;;;;;2.13;1.93;;;22.10;65.90;;;;;;4993215;28;20832;-49
2023/09/16 05:44:56;;;;;;;2.13;1.90;;;22.10;65.80;;;;;;4987098;28;20551;-48
2023/09/16 05:47:44;;;;;;;2.67;2.00;;;22.10;65.80;;;;;;4999109;28;21065;-49
2023/09/16 05:50:32;;;;;;;2.73;2.53;;;22.10;65.90;;;;;;4994761;28;20451;-49
2023/09/16 05:53:18;;;;;;;2.50;2.30;;;22.10;65.90;;;;;;4987604;28;20464;-49
2023/09/16 05:56:08;;;;;;;2.13;1.93;;;22.10;65.80;;;;;;4990141;28;20834;-48
2023/09/16 05:59:00;;;;;;;2.37;2.17;;;22.10;67.10;;;;;;4970642;28;20441;-49
2023/09/16 06:01:47;;;;;;;1.70;1.60;;;22.10;65.80;;;;;;4989313;28;20568;-49
2023/09/16 06:04:34;;;;;;;2.27;2.07;;;22.00;65.70;;;;;;4987883;28;20989;-49
2023/09/16 06:07:21;;;;;;;2.13;1.93;;;22.00;65.70;;;;;;4990446;28;20951;-48
2023/09/16 06:10:08;;;;;;;2.63;2.20;;;22.00;65.70;;;;;;4990962;28;20539;-49
2023/09/16 06:12:56;;;;;;;2.50;1.90;;;22.00;65.80;;;;;;4984111;28;21001;-49
2023/09/16 06:15:44;;;;;;;2.43;2.00;;;22.00;65.70;;;;;;4990091;28;20449;-49
2023/09/16 06:18:31;;;;;;;2.17;2.00;;;22.00;65.70;;;;;;4991936;28;20604;-49
2023/09/16 06:21:18;;;;;;;2.30;2.10;;;22.00;65.70;;;;;;4977481;28;20475;-49
2023/09/16 06:24:05;;;;;;;2.10;1.90;;;22.00;65.70;;;;;;5011183;28;20467;-48
2023/09/16 06:26:53;;;;;;;2.00;1.80;;;22.00;65.70;;;;;;4990944;28;21051;-49
2023/09/16 06:29:41;;;;;;;2.60;2.40;;;22.00;65.70;;;;;;4990754;28;20460;-49
2023/09/16 06:32:28;;;;;;;1.73;1.63;;;22.00;65.70;;;;;;5009007;28;20483;-49
2023/09/16 06:35:15;;;;;;;2.23;2.03;;;22.00;65.70;;;;;;5003619;28;20452;-49
2023/09/16 06:38:02;;;;;;;2.30;2.00;;;22.00;65.70;;;;;;5006192;28;20468;-49
2023/09/16 06:40:49;;;;;;;2.10;1.90;;;22.00;65.70;;;;;;5004178;28;20441;-49
2023/09/16 06:43:36;;;;;;;1.97;1.77;;;22.00;65.70;;;;;;4988942;28;20493;-49
2023/09/16 06:46:25;;;;;;;2.30;2.10;;;22.00;65.80;;;;;;4985884;28;20461;-49
2023/09/16 06:49:11;;;;;;;2.87;2.20;;;22.00;65.70;;;;;;4987119;28;20572;-49
2023/09/16 06:51:58;;;;;;;2.40;2.20;;;22.00;65.80;;;;;;4989213;28;20468;-49
2023/09/16 06:54:45;;;;;;;2.90;2.23;;;22.00;65.70;;;;;;4986088;28;20433;-49
2023/09/16 06:57:32;;;;;;;2.90;2.60;;;22.00;65.80;;;;;;4989794;28;20540;-48
2023/09/16 07:00:19;;;;;;;2.57;2.37;;;22.00;65.70;;;;;;4986403;28;20440;-48
2023/09/16 07:03:08;;;;;;;2.10;1.80;;;22.00;65.70;;;;;;4987652;28;20461;-48
2023/09/16 07:05:55;;;;;;;2.93;2.23;;;21.90;65.70;;;;;;4987269;28;21363;-48
2023/09/16 07:08:42;;;;;;;2.23;2.03;;;22.00;65.70;;;;;;5009479;28;20436;-49
2023/09/16 07:11:29;;;;;;;2.60;2.40;;;22.00;65.80;;;;;;5007629;28;21055;-49
2023/09/16 07:14:16;;;;;;;2.97;2.63;;;22.00;65.70;;;;;;5004456;28;20499;-49
2023/09/16 07:17:02;;;;;;;2.50;2.30;;;22.00;65.80;;;;;;5005053;28;20483;-50
2023/09/16 07:19:50;;;;;;;2.27;2.07;;;22.00;65.70;;;;;;5001639;28;20455;-49
2023/09/16 07:22:39;;;;;;;2.50;2.20;;;22.00;65.70;;;;;;4989898;28;20488;-50
2023/09/16 07:25:25;;;;;;;3.17;2.77;;;22.00;65.70;;;;;;4992714;28;20472;-50
2023/09/16 07:28:12;;;;;;;2.20;1.90;;;22.00;65.70;;;;;;4984979;28;20500;-49
2023/09/16 07:30:59;;;;;;;1.90;1.70;;;22.00;65.70;;;;;;4983715;28;20519;-50
2023/09/16 07:33:46;;;;;;;3.80;2.42;;;22.00;65.80;;;;;;4983489;28;20588;-49
2023/09/16 07:36:34;;;;;;;2.67;2.30;;;22.00;65.70;;;;;;4988316;28;20228;-49
2023/09/16 07:39:21;;;;;;;3.10;2.33;;;22.00;65.80;;;;;;4988612;28;20445;-49
2023/09/16 07:42:08;;;;;;;3.00;2.23;;;22.00;65.80;;;;;;4985605;28;21166;-49
2023/09/16 07:44:54;;;;;;;2.43;2.23;;;22.00;65.70;;;;;;4984974;28;20472;-49
2023/09/16 07:47:40;;;;;;;3.67;2.10;;;22.00;65.70;;;;;;4987041;28;20484;-49
2023/09/16 07:50:27;;;;;;;2.40;2.20;;;22.00;65.70;;;;;;4984904;28;20456;-49
2023/09/16 07:53:15;;;;;;;2.20;1.93;;;22.00;65.70;;;;;;5009487;28;21016;-51
2023/09/16 07:56:02;;;;;;;2.20;2.00;;;22.00;65.70;;;;;;5000267;28;20476;-50
2023/09/16 07:58:49;;;;;;;2.97;2.20;;;22.00;65.70;;;;;;4969394;28;20472;-50
2023/09/16 08:01:36;;;;;;;2.53;2.33;;;22.00;65.70;;;;;;4984475;28;20544;-50
2023/09/16 08:04:23;;;;;;;2.53;2.33;;;22.00;65.70;;;;;;4984404;28;20488;-50
2023/09/16 08:07:09;;;;;;;2.30;2.10;;;22.00;65.70;;;;;;4991807;28;20457;-50
2023/09/16 08:09:58;;;;;;;2.50;2.30;;;22.00;65.70;;;;;;4983631;28;20436;-50
2023/09/16 08:12:45;;;;;;;2.80;2.33;;;22.00;65.70;;;;;;4985020;28;20534;-50
2023/09/16 08:15:31;;;;;;;3.53;2.70;;;22.00;65.70;;;;;;4994983;28;20515;-49
2023/09/16 08:18:18;;;;;;;2.30;2.10;;;22.00;65.80;;;;;;5009805;28;20464;-50
2023/09/16 08:21:04;;;;;;;2.43;2.23;;;22.00;65.70;;;;;;5005581;28;20563;-50
2023/09/16 08:23:51;;;;;;;2.53;2.33;;;22.00;65.70;;;;;;4989052;28;20508;-49
2023/09/16 08:26:39;;;;;;;2.80;2.60;;;22.00;65.70;;;;;;4977795;28;20555;-49
2023/09/16 08:29:26;;;;;;;6.57;5.23;;;22.00;65.70;;;;;;4978402;28;20468;-49
2023/09/16 08:32:13;;;;;;;6.17;5.30;;;21.90;69.00;;;;;;4991585;28;20484;-49
2023/09/16 08:35:00;;;;;;;10.50;5.40;;;21.90;70.40;;;;;;4998108;28;20520;-48
2023/09/16 08:37:46;;;;;;;6.47;5.00;;;22.00;69.20;;;;;;4994947;28;20480;-49
2023/09/16 08:40:33;;;;;;;8.13;4.78;;;22.20;69.90;;;;;;5000992;28;20511;-48
2023/09/16 08:43:28;;;;;;;6.57;4.53;;;22.30;68.50;;;;;;4978408;28;20301;-48
2023/09/16 08:46:17;;;;;;;5.33;4.80;;;22.30;67.90;;;;;;4976593;28;20473;-48
2023/09/16 08:49:07;;;;;;;9.77;3.77;;;22.20;67.70;;;;;;4977430;28;20452;-49
2023/09/16 08:51:59;;;;;;;4.07;3.77;;;22.30;67.90;;;;;;4981216;28;20473;-50
2023/09/16 08:54:48;;;;;;;4.57;3.83;;;22.20;67.80;;;;;;4980240;28;20577;-49
2023/09/16 08:57:35;;;;;;;6.30;4.10;;;22.20;67.80;;;;;;4979424;28;21037;-50
2023/09/16 09:00:23;;;;;;;5.10;3.93;;;22.10;67.80;;;;;;4978027;28;20465;-50
2023/09/16 09:03:11;;;;;;;4.53;3.83;;;22.10;69.10;;;;;;4981221;28;20480;-50
2023/09/16 09:05:58;;;;;;;4.83;3.37;;;22.10;67.80;;;;;;4978501;28;20953;-50
2023/09/16 09:08:44;;;;;;;4.60;4.20;;;22.10;67.70;;;;;;4986050;28;20580;-50
2023/09/16 09:11:31;;;;;;;6.40;4.20;;;22.10;67.70;;;;;;4981975;28;20529;-50
2023/09/16 09:14:21;;;;;;;5.03;3.90;;;22.20;68.20;;;;;;4989014;28;20537;-50
2023/09/16 09:17:11;;;;;;;5.30;3.50;;;22.20;67.50;;;;;;4979287;28;20476;-50
2023/09/16 09:19:58;;;;;;;5.03;3.80;;;22.20;67.40;;;;;;4982925;28;20464;-50
2023/09/16 09:22:46;;;;;;;4.20;3.80;;;22.20;67.50;;;;;;5001051;28;20586;-50
2023/09/16 09:25:36;;;;;;;3.77;3.43;;;22.20;67.50;;;;;;5002647;28;20464;-50
2023/09/16 09:28:22;;;;;;;5.70;3.53;;;22.20;67.40;;;;;;5002989;28;20491;-50
2023/09/16 09:31:10;;;;;;;3.90;3.50;;;22.20;67.40;;;;;;5002617;28;20535;-50
2023/09/16 09:33:58;;;;;;;4.90;4.20;;;22.20;67.00;;;;;;5003356;28;20456;-50
2023/09/16 09:36:46;;;;;;;4.10;3.70;;;22.20;67.30;;;;;;5002577;28;20483;-51
2023/09/16 09:39:33;;;;;;;4.20;3.47;;;22.20;67.20;;;;;;5003448;28;20464;-51
2023/09/16 09:42:20;;;;;;;3.83;3.27;;;22.20;67.10;;;;;;4986267;28;20556;-51
2023/09/16 09:45:08;;;;;;;3.93;3.63;;;22.20;66.90;;;;;;4967826;28;20531;-51
2023/09/16 09:47:56;;;;;;;4.77;3.57;;;22.20;67.00;;;;;;4979278;28;20532;-51
2023/09/16 09:50:44;;;;;;;4.33;3.27;;;22.30;67.40;;;;;;4976824;28;20449;-51
2023/09/16 09:53:32;;;;;;;3.73;3.43;;;22.30;66.90;;;;;;5004247;28;20479;-51
2023/09/16 09:56:19;;;;;;;5.60;3.70;;;22.20;66.90;;;;;;4999100;28;20518;-51
2023/09/16 09:59:06;;;;;;;3.77;3.30;;;22.20;67.00;;;;;;5002511;28;20595;-51
2023/09/16 10:01:53;;;;;;;4.40;3.70;;;22.20;67.00;;;;;;5001216;28;20591;-51
2023/09/16 10:04:39;;;;;;;4.63;3.40;;;22.20;67.00;;;;;;4997987;28;20516;-51
2023/09/16 10:07:28;;;;;;;3.80;3.50;;;22.20;67.10;;;;;;4999243;28;20626;-51
2023/09/16 10:10:18;;;;;;;4.20;3.60;;;22.20;67.10;;;;;;4996397;28;20472;-50
2023/09/16 10:13:05;;;;;;;4.17;3.10;;;22.20;66.90;;;;;;4980837;28;20950;-50
2023/09/16 10:15:54;;;;;;;3.93;3.47;;;22.20;67.00;;;;;;4986706;28;20441;-50
2023/09/16 10:18:42;;;;;;;6.43;4.17;;;22.20;66.90;;;;;;5000795;28;20459;-50
2023/09/16 10:21:29;;;;;;;3.73;3.40;;;22.20;67.10;;;;;;5002401;28;20823;-50
2023/09/16 10:24:17;;;;;;;3.33;3.00;;;22.20;66.90;;;;;;5000424;28;20467;-51
2023/09/16 10:27:09;;;;;;;3.80;3.50;;;22.20;67.00;;;;;;4996351;28;20495;-49
2023/09/16 10:29:57;;;;;;;3.53;3.20;;;22.20;67.10;;;;;;4999576;28;20456;-49
2023/09/16 10:32:45;;;;;;;4.67;3.50;;;22.20;67.00;;;;;;4983290;28;20519;-50
2023/09/16 10:35:34;;;;;;;3.77;3.37;;;22.20;67.10;;;;;;4980393;28;20466;-50
2023/09/16 10:38:22;;;;;;;3.40;3.00;;;22.20;67.10;;;;;;4995195;28;20464;-51
2023/09/16 10:41:11;;;;;;;3.90;3.60;;;22.20;67.10;;;;;;4997028;28;20536;-50
2023/09/16 10:43:58;;;;;;;4.33;3.33;;;22.20;67.10;;;;;;4998263;28;20469;-50
2023/09/16 10:46:47;;;;;;;4.63;3.23;;;22.20;67.10;;;;;;4999337;28;20698;-49
2023/09/16 10:49:34;;;;;;;3.30;3.00;;;22.20;67.10;;;;;;4997119;28;20518;-50
2023/09/16 10:52:31;;;;;;;3.80;3.50;;;22.20;67.10;;;;;;4999831;28;20831;-51
2023/09/16 10:55:25;;;;;;;3.27;2.97;;;22.20;67.20;;;;;;4997452;28;20460;-50
2023/09/16 10:58:20;;;;;;;2.80;2.60;;;22.20;67.20;;;;;;4998492;28;20500;-49
2023/09/16 11:01:08;;;;;;;3.70;3.40;;;22.20;67.10;;;;;;4996953;28;20543;-50
2023/09/16 11:03:59;;;;;;;2.93;2.70;;;22.20;67.10;;;;;;4997391;28;20630;-49
2023/09/16 11:06:50;;;;;;;9.53;3.90;;;22.20;67.20;;;;;;4998090;28;20546;-50
2023/09/16 11:09:38;;;;;;;4.57;3.97;;;22.30;67.40;;;;;;4997353;28;21075;-51
2023/09/16 11:12:26;;;;;;;3.50;3.20;;;22.30;68.40;;;;;;4997797;28;20479;-49
2023/09/16 11:15:16;;;;;;;6.40;3.63;;;22.30;67.30;;;;;;4997002;28;20472;-53
2023/09/16 11:18:04;;;;;;;4.07;3.70;;;22.20;67.10;;;;;;4992674;28;20501;-49
2023/09/16 11:20:52;;;;;;;4.87;3.73;;;22.30;67.80;;;;;;4997020;28;20232;-50
2023/09/16 11:23:38;;;;;;;3.93;3.63;;;22.30;67.30;;;;;;4997182;28;20477;-49
2023/09/16 11:26:25;;;;;;;4.57;4.17;;;22.30;67.30;;;;;;4996039;28;20476;-50
2023/09/16 11:29:19;;;;;;;3.77;3.23;;;22.30;67.70;;;;;;4995836;28;22515;-50
2023/09/16 11:32:08;;;;;;;3.70;3.40;;;22.30;67.70;;;;;;4993976;28;20555;-51
2023/09/16 11:35:00;;;;;;;4.00;3.60;;;22.30;67.70;;;;;;4998314;28;20459;-50
2023/09/16 11:37:47;;;;;;;5.50;3.87;;;22.30;68.20;;;;;;4996070;28;20523;-50
2023/09/16 11:40:34;;;;;;;3.90;3.60;;;22.40;67.70;;;;;;4999764;28;20585;-49
2023/09/16 11:43:21;;;;;;;5.00;4.57;;;22.40;67.60;;;;;;4981583;28;20336;-50
2023/09/16 11:46:09;;;;;;;5.90;4.53;;;22.40;68.80;;;;;;4974622;28;20476;-49
2023/09/16 11:49:00;;;;;;;5.33;4.83;;;22.40;67.80;;;;;;4982491;28;20613;-50
2023/09/16 11:51:50;;;;;;;6.03;4.40;;;22.40;68.20;;;;;;4980558;28;20612;-53
2023/09/16 11:54:37;;;;;;;3.93;3.63;;;22.40;68.20;;;;;;4986009;28;20460;-52
2023/09/16 11:57:24;;;;;;;4.67;4.27;;;22.40;68.10;;;;;;4982720;28;20606;-52
2023/09/16 12:00:12;;;;;;;4.20;3.23;;;22.30;68.10;;;;;;4972997;28;20529;-49
2023/09/16 12:03:00;;;;;;;4.77;4.37;;;22.40;68.30;;;;;;4975032;28;20469;-49
2023/09/16 12:05:49;;;;;;;4.60;4.20;;;22.40;68.20;;;;;;4974981;28;20473;-52
2023/09/16 12:08:35;;;;;;;4.67;4.07;;;22.30;68.20;;;;;;4997363;28;20547;-51
2023/09/16 12:11:22;;;;;;;4.27;3.87;;;22.30;68.30;;;;;;4997358;28;20488;-52
2023/09/16 12:14:09;;;;;;;4.23;3.83;;;22.30;68.40;;;;;;4998519;28;20459;-52
2023/09/16 12:16:55;;;;;;;4.93;3.60;;;22.30;68.40;;;;;;4996502;28;20469;-50
2023/09/16 12:19:49;;;;;;;5.20;3.87;;;22.30;68.40;;;;;;4995675;28;20498;-51
2023/09/16 12:22:37;;;;;;;4.17;3.57;;;22.30;68.40;;;;;;4997006;28;20518;-50
2023/09/16 12:25:26;;;;;;;4.60;4.20;;;22.30;68.40;;;;;;4996434;28;20464;-52
2023/09/16 12:28:20;;;;;;;4.30;3.90;;;22.30;68.30;;;;;;4992300;28;20765;-52
2023/09/16 12:31:09;;;;;;;4.80;4.30;;;22.30;68.50;;;;;;4994245;28;20466;-52
2023/09/16 12:33:56;;;;;;;4.63;4.03;;;22.30;69.60;;;;;;4987006;28;21057;-50
2023/09/16 12:36:49;;;;;;;4.43;4.03;;;22.30;68.40;;;;;;4991427;28;20471;-51
2023/09/16 12:39:38;;;;;;;4.10;3.80;;;22.30;68.30;;;;;;4999053;28;20428;-51
2023/09/16 12:42:25;;;;;;;3.70;3.40;;;22.30;68.40;;;;;;4999303;28;20832;-52
2023/09/16 12:45:13;;;;;;;3.90;3.60;;;22.30;68.40;;;;;;5002431;28;20594;-52
2023/09/16 12:48:00;;;;;;;4.87;4.30;;;22.30;68.40;;;;;;4997161;28;20477;-52
2023/09/16 12:50:47;;;;;;;3.63;3.33;;;22.30;68.40;;;;;;4996494;28;20563;-52
2023/09/16 12:53:34;;;;;;;4.23;3.87;;;22.30;68.40;;;;;;5004739;28;20470;-52
2023/09/16 12:56:23;;;;;;;4.00;3.70;;;22.30;68.30;;;;;;5002458;28;20488;-50
2023/09/16 12:59:10;;;;;;;4.47;4.07;;;22.30;68.30;;;;;;5003014;28;20468;-51
2023/09/16 13:01:57;;;;;;;3.23;2.93;;;22.40;68.40;;;;;;5003946;28;20508;-52
2023/09/16 13:04:45;;;;;;;3.60;3.27;;;22.30;68.20;;;;;;5001115;28;20874;-52
2023/09/16 13:07:32;;;;;;;3.93;3.63;;;22.30;68.20;;;;;;5004916;28;20611;-50
2023/09/16 13:10:19;;;;;;;4.03;3.73;;;22.40;68.40;;;;;;5003947;28;20464;-50
2023/09/16 13:13:09;;;;;;;4.70;4.30;;;22.40;68.40;;;;;;4980519;28;20477;-51
2023/09/16 13:15:57;;;;;;;3.90;3.50;;;22.40;68.20;;;;;;4983292;28;20441;-51
2023/09/16 13:18:44;;;;;;;4.07;3.77;;;22.40;68.20;;;;;;4988617;28;20591;-53
2023/09/16 13:21:32;;;;;;;3.67;3.40;;;22.40;68.30;;;;;;4985044;28;20476;-51
2023/09/16 13:24:19;;;;;;;4.37;3.90;;;22.40;68.20;;;;;;4989959;28;20580;-51
2023/09/16 13:27:09;;;;;;;3.67;3.37;;;22.40;69.50;;;;;;4986161;28;20551;-51
2023/09/16 13:30:01;;;;;;;3.83;3.53;;;22.40;68.40;;;;;;4985910;28;20456;-50
2023/09/16 13:32:51;;;;;;;4.37;3.97;;;22.40;68.20;;;;;;4992582;28;20468;-51
2023/09/16 13:35:40;;;;;;;4.00;3.47;;;22.40;68.40;;;;;;4989468;28;20445;-50
2023/09/16 13:38:26;;;;;;;3.77;3.43;;;22.40;68.40;;;;;;4981337;28;20480;-50
2023/09/16 13:41:13;;;;;;;4.40;4.00;;;22.40;68.40;;;;;;4986457;28;20476;-50
2023/09/16 13:44:00;;;;;;;3.90;3.60;;;22.40;69.60;;;;;;5001261;28;20456;-51
2023/09/16 13:46:49;;;;;;;3.77;3.47;;;22.40;68.40;;;;;;4999201;28;20479;-51
2023/09/16 13:49:36;;;;;;;4.23;3.93;;;22.50;68.40;;;;;;5000334;28;20556;-51
2023/09/16 13:52:23;;;;;;;3.73;3.43;;;22.50;68.50;;;;;;5001090;28;22744;-52
2023/09/16 13:55:09;;;;;;;4.40;4.00;;;22.50;68.40;;;;;;4998273;28;20580;-51
2023/09/16 13:57:57;;;;;;;3.90;3.50;;;22.50;68.40;;;;;;4978336;28;20528;-51
2023/09/16 14:00:44;;;;;;;4.20;3.80;;;22.50;68.40;;;;;;4984680;28;20464;-51
2023/09/16 14:03:32;;;;;;;3.83;3.53;;;22.50;68.40;;;;;;4981345;28;20607;-52
2023/09/16 14:06:19;;;;;;;3.03;2.73;;;22.50;68.50;;;;;;4982785;28;20476;-51
2023/09/16 14:09:06;;;;;;;3.80;3.50;;;22.50;68.40;;;;;;5010363;28;20647;-51
2023/09/16 14:11:52;;;;;;;3.50;3.20;;;22.50;68.40;;;;;;5001620;28;20538;-51
2023/09/16 14:14:39;;;;;;;3.70;3.40;;;22.50;68.50;;;;;;5003455;28;20452;-51
2023/09/16 14:17:26;;;;;;;3.40;3.10;;;22.50;68.40;;;;;;5003806;28;20483;-52
2023/09/16 14:20:14;;;;;;;3.90;3.60;;;22.50;68.40;;;;;;5001083;28;20547;-51
2023/09/16 14:23:03;;;;;;;3.77;3.47;;;22.50;68.40;;;;;;5007773;28;20472;-51
2023/09/16 14:25:53;;;;;;;3.83;3.53;;;22.50;68.40;;;;;;5005286;28;20467;-52
2023/09/16 14:28:40;;;;;;;3.83;3.53;;;22.50;68.40;;;;;;5003385;28;20472;-52
2023/09/16 14:31:26;;;;;;;4.40;3.73;;;22.50;68.40;;;;;;4996014;28;20484;-52
2023/09/16 14:34:13;;;;;;;4.07;3.67;;;22.60;68.90;;;;;;4977626;28;20445;-51